Del Norte, CO (81132)

7:50 PM MDT on August 30, 2015 (GMT -0600)
North West of | | Change Station
CLOSE
Current Station
Personal Weather Station
Location: MONTE VISTA, CO
Elevation: 7720 ft
Nearby Weather Stations

Elev 7720 ft 37.65 °N, 106.18 °W | Updated 2 seconds ago

Partly Cloudy
Partly Cloudy
60.5 °F
Feels Like 60.5 °F
N
4.0
Wind Variable Wind from WSW
Gusts 7.0 mph

Today
High -- | Low -- °F
--% Chance of Precip.
Yesterday
High -- | Low -- °F
Precip. -- in
6:34 AM 7:37 PM
Full, 97% visible
Pressure 29.95 in
Visibility 10.0 miles
Clouds Clear
Dew Point 51 °F
Humidity 70%
Rainfall 0.00 in
Snow Depth Not available.
UV 0 out of 12
Pollen 10.80 out of 12
Air Quality Not available.
Flu Activity Not available.
METAR KALS 310052Z AUTO 31014KT 10SM CLR 23/04 A3021 RMK AO2 SLP142 T02280044
Pressure 29.95 in
Visibility 10.0 miles
Clouds Clear
Dew Point 51 °F
Humidity 70%
Rainfall 0.00 in
Snow Depth Not available.
UV 0 out of 12
Pollen 10.80 out of 12
Air Quality Not available.
Flu Activity Not available.
METAR KALS 310052Z AUTO 31014KT 10SM CLR 23/04 A3021 RMK AO2 SLP142 T02280044

10-Day Weather Forecast

×

Almanac

Astronomy

Aug. 30, 2015 Rise Set
Actual Time
Civil Twilight
Nautical Twilight
Astronomical Twilight
Moon
Length of Visible Light
Length of Day
Tomorrow will be .
, % of the Moon is Illuminated

Today's Extremes

State Highs State Lows

Community

WunderPhotos

Upload Photos

1,851,145 photos uploaded!

WunderBlogs® & News

Nearby

Air Quality

  Air Quality AQ Index Pollutant
Not available.

Snow Depth

Station Depth Elevation

Earthquake Activity

City Distance Mag. Time & Date
Minimum magnitude displayed is 2.5.

Coastal Water Temperatures

Place Temperature

Stations

Nearby Weather Stations

Station Location Temp. Windchill Dew Point Humidity Wind Precip. Elev Updated Type